createdAt,value
2018-07-23T00:00:11.071Z,20.26
2018-07-23T00:01:25.766Z,20.18
2018-07-23T00:02:40.456Z,20.18
2018-07-23T00:03:55.158Z,20.18
2018-07-23T00:05:09.322Z,20.18
2018-07-23T00:06:23.337Z,20.18
2018-07-23T00:07:37.270Z,20.21
2018-07-23T00:08:51.711Z,20.15
2018-07-23T00:10:05.888Z,20.17
2018-07-23T00:11:20.307Z,20.11
2018-07-23T00:12:34.819Z,20.19
2018-07-23T00:13:48.717Z,20.14
2018-07-23T00:15:03.136Z,20.11
2018-07-23T00:16:17.368Z,20.12
2018-07-23T00:17:31.693Z,20.15
2018-07-23T00:18:52.625Z,20.12
2018-07-23T00:20:07.058Z,20.11
2018-07-23T00:21:21.761Z,20.03
2018-07-23T00:22:36.083Z,20
2018-07-23T00:23:50.532Z,20.03
2018-07-23T00:25:04.945Z,20
2018-07-23T00:26:19.629Z,19.9
2018-07-23T00:27:34.052Z,19.94
2018-07-23T00:28:47.983Z,19.92
2018-07-23T00:30:02.961Z,19.93
2018-07-23T00:31:16.857Z,19.81
2018-07-23T00:32:30.821Z,19.81
2018-07-23T00:33:45.225Z,19.82
2018-07-23T00:35:00.114Z,19.92
2018-07-23T00:36:14.588Z,19.79
2018-07-23T00:37:28.272Z,19.81
2018-07-23T00:38:42.368Z,19.85
2018-07-23T00:39:56.535Z,19.84
2018-07-23T00:41:10.210Z,19.81
2018-07-23T00:42:24.366Z,19.74
2018-07-23T00:43:38.701Z,19.75
2018-07-23T00:44:52.886Z,19.7
2018-07-23T00:46:07.058Z,19.71
2018-07-23T00:47:22.023Z,19.72
2018-07-23T00:48:36.705Z,19.78
2018-07-23T00:50:22.936Z,19.74
2018-07-23T00:51:37.826Z,19.78
2018-07-23T00:52:52.267Z,19.79
2018-07-23T00:54:06.554Z,19.84
2018-07-23T00:55:21.259Z,19.72
2018-07-23T00:56:35.672Z,19.71
2018-07-23T00:57:49.554Z,19.77
2018-07-23T00:59:04.268Z,19.74
2018-07-23T01:00:18.435Z,19.75
2018-07-23T01:01:33.108Z,19.7
2018-07-23T01:02:48.021Z,19.64
2018-07-23T01:04:02.190Z,19.62
2018-07-23T01:05:16.850Z,19.6
2018-07-23T01:06:31.025Z,19.67
2018-07-23T01:07:45.204Z,19.66
2018-07-23T01:08:59.650Z,19.6
2018-07-23T01:10:14.470Z,19.63
2018-07-23T01:11:29.419Z,19.63
2018-07-23T01:12:43.815Z,19.67
2018-07-23T01:13:58.481Z,19.6
2018-07-23T01:15:12.659Z,19.62
2018-07-23T01:16:27.329Z,19.6
2018-07-23T01:17:40.950Z,19.67
2018-07-23T01:18:55.895Z,19.64
2018-07-23T01:20:10.123Z,19.57
2018-07-23T01:21:25.055Z,19.53
2018-07-23T01:22:39.232Z,19.56
2018-07-23T01:23:53.645Z,19.41
2018-07-23T01:25:07.727Z,19.44
2018-07-23T01:26:21.897Z,19.45
2018-07-23T01:27:36.069Z,19.42
2018-07-23T01:28:50.272Z,19.53
2018-07-23T01:30:04.952Z,19.56
2018-07-23T01:31:19.702Z,19.49
2018-07-23T01:32:33.602Z,19.59
2018-07-23T01:33:48.498Z,19.66
2018-07-23T01:35:03.730Z,19.63
2018-07-23T01:36:17.902Z,19.57
2018-07-23T01:37:31.557Z,19.45
2018-07-23T01:38:45.955Z,19.55
2018-07-23T01:40:00.346Z,19.49
2018-07-23T01:41:15.308Z,19.44
2018-07-23T01:42:30.146Z,19.47
2018-07-23T01:43:44.561Z,19.37
2018-07-23T01:44:59.224Z,19.35
2018-07-23T01:46:13.934Z,19.39
2018-07-23T01:47:28.565Z,19.32
2018-07-23T01:48:42.719Z,19.35
2018-07-23T01:49:57.382Z,19.39
2018-07-23T01:51:11.707Z,19.41
2018-07-23T01:52:26.378Z,19.37
2018-07-23T01:53:40.811Z,19.29
2018-07-23T01:54:55.218Z,19.32
2018-07-23T01:56:09.377Z,19.3
2018-07-23T01:57:23.817Z,19.34
2018-07-23T01:58:37.984Z,19.32
2018-07-23T01:59:52.684Z,19.27
2018-07-23T02:01:07.345Z,19.29
2018-07-23T02:02:21.522Z,19.27
2018-07-23T02:03:35.695Z,19.3
2018-07-23T02:04:49.623Z,19.26
2018-07-23T02:06:04.053Z,19.26
2018-07-23T02:07:18.709Z,19.32
2018-07-23T02:08:33.571Z,19.19
2018-07-23T02:09:48.050Z,19.12
2018-07-23T02:11:01.757Z,19.17
2018-07-23T02:12:15.927Z,19.2
2018-07-23T02:13:30.864Z,19.26
2018-07-23T02:14:45.766Z,19.09
2018-07-23T02:16:00.406Z,19.19
2018-07-23T02:17:15.289Z,19.19
2018-07-23T02:18:29.980Z,19.19
2018-07-23T02:19:44.381Z,19.2
2018-07-23T02:20:58.847Z,19.2
2018-07-23T02:22:13.475Z,19.2
2018-07-23T02:23:27.875Z,19.05
2018-07-23T02:24:42.979Z,19.16
2018-07-23T02:25:57.900Z,19.12
2018-07-23T02:27:11.878Z,19.09
2018-07-23T02:28:26.290Z,19.12
2018-07-23T02:29:41.244Z,19.08
2018-07-23T02:30:55.425Z,19.07
2018-07-23T02:32:09.885Z,19.09
2018-07-23T02:33:24.329Z,19.08
2018-07-23T02:34:39.269Z,19.15
2018-07-23T02:35:53.651Z,19.12
2018-07-23T02:37:08.099Z,18.96
2018-07-23T02:38:22.273Z,19.07
2018-07-23T02:39:36.745Z,19.01
2018-07-23T02:40:51.667Z,18.94
2018-07-23T02:42:06.346Z,18.89
2018-07-23T02:43:21.331Z,18.89
2018-07-23T02:44:36.284Z,18.86
2018-07-23T02:45:50.958Z,18.85
2018-07-23T02:47:05.660Z,18.86
2018-07-23T02:48:20.247Z,18.91
2018-07-23T02:49:34.667Z,18.88
2018-07-23T02:50:49.065Z,18.94
2018-07-23T02:52:03.480Z,18.86
2018-07-23T02:53:18.118Z,18.91
2018-07-23T02:54:32.798Z,18.88
2018-07-23T02:55:46.955Z,18.97
2018-07-23T02:57:01.618Z,19
2018-07-23T02:58:16.154Z,18.98
2018-07-23T02:59:30.326Z,18.92
2018-07-23T03:00:44.813Z,19
2018-07-23T03:01:59.519Z,18.89
2018-07-23T03:03:13.971Z,18.88
2018-07-23T03:04:28.187Z,18.85
2018-07-23T03:05:42.630Z,18.91
2018-07-23T03:06:57.034Z,18.96
2018-07-23T03:08:11.484Z,18.88
2018-07-23T03:09:25.396Z,18.98
2018-07-23T03:10:39.834Z,18.88
2018-07-23T03:11:54.244Z,18.89
2018-07-23T03:13:08.923Z,19
2018-07-23T03:14:23.274Z,18.96
2018-07-23T03:15:37.472Z,18.89
2018-07-23T03:16:51.627Z,18.83
2018-07-23T03:18:06.032Z,18.91
2018-07-23T03:19:21.390Z,18.88
2018-07-23T03:20:36.062Z,18.91
2018-07-23T03:21:50.722Z,18.91
2018-07-23T03:23:05.425Z,18.88
2018-07-23T03:24:20.079Z,18.85
2018-07-23T03:25:34.316Z,18.88
2018-07-23T03:26:48.512Z,18.86
2018-07-23T03:28:02.786Z,18.83
2018-07-23T03:29:17.244Z,18.91
2018-07-23T03:30:31.442Z,18.82
2018-07-23T03:31:46.126Z,18.85
2018-07-23T03:33:00.031Z,18.89
2018-07-23T03:34:14.376Z,18.97
2018-07-23T03:35:29.336Z,19.05
2018-07-23T03:36:43.541Z,18.97
2018-07-23T03:37:58.232Z,19.09
2018-07-23T03:39:12.436Z,19.07
2018-07-23T03:40:26.867Z,19
2018-07-23T03:41:41.765Z,19.08
2018-07-23T03:42:56.461Z,19.11
2018-07-23T03:44:11.129Z,19.09
2018-07-23T03:45:25.836Z,19.09
2018-07-23T03:46:40.517Z,19.16
2018-07-23T03:47:54.671Z,19.09
2018-07-23T03:49:08.366Z,19.08
2018-07-23T03:50:23.171Z,19.12
2018-07-23T03:51:37.855Z,19.11
2018-07-23T03:52:52.535Z,19.12
2018-07-23T03:54:06.963Z,19.12
2018-07-23T03:55:21.315Z,19.19
2018-07-23T03:56:36.016Z,19.07
2018-07-23T03:57:50.418Z,19.19
2018-07-23T03:59:04.399Z,19.22
2018-07-23T04:00:19.091Z,19.08
2018-07-23T04:01:34.033Z,19.27
2018-07-23T04:02:48.491Z,19.23
2018-07-23T04:04:03.440Z,19.3
2018-07-23T04:05:17.831Z,19.37
2018-07-23T04:06:32.011Z,19.37
2018-07-23T04:07:46.692Z,19.38
2018-07-23T04:09:00.664Z,19.38
2018-07-23T04:11:16.584Z,19.6
2018-07-23T04:12:31.066Z,19.92
2018-07-23T04:13:45.732Z,20.15
2018-07-23T04:15:00.363Z,20.36
2018-07-23T04:16:14.781Z,20.55
2018-07-23T04:17:29.079Z,20.78
2018-07-23T04:18:43.748Z,20.96
2018-07-23T04:19:58.187Z,21.07
2018-07-23T04:21:13.122Z,21.25
2018-07-23T04:22:27.565Z,21.44
2018-07-23T04:23:41.767Z,21.54
2018-07-23T04:24:55.705Z,21.8
2018-07-23T04:26:09.898Z,21.77
2018-07-23T04:27:23.682Z,21.99
2018-07-23T04:28:38.144Z,22.18
2018-07-23T04:29:52.550Z,22.34
2018-07-23T04:31:06.762Z,22.44
2018-07-23T04:32:21.061Z,22.59
2018-07-23T04:33:35.269Z,22.51
2018-07-23T04:34:49.674Z,22.55
2018-07-23T04:36:04.328Z,22.73
2018-07-23T04:37:19.560Z,22.63
2018-07-23T04:38:33.736Z,22.31
2018-07-23T04:39:48.434Z,22.38
2018-07-23T04:41:03.113Z,22.59
2018-07-23T04:42:18.170Z,22.99
2018-07-23T04:43:32.780Z,23.33
2018-07-23T04:44:47.452Z,23.84
2018-07-23T04:46:02.129Z,24.01
2018-07-23T04:47:16.530Z,24.19
2018-07-23T04:48:30.725Z,24.43
2018-07-23T04:49:44.676Z,24.66
2018-07-23T04:50:58.842Z,24.92
2018-07-23T04:52:13.234Z,25.11
2018-07-23T04:53:27.420Z,25.19
2018-07-23T04:54:41.886Z,25.34
2018-07-23T04:55:56.813Z,25.58
2018-07-23T04:57:11.679Z,25.63
2018-07-23T04:58:26.404Z,25.76
2018-07-23T04:59:41.093Z,25.88
2018-07-23T05:00:56.023Z,25.99
2018-07-23T05:02:10.219Z,26.1
2018-07-23T05:03:23.897Z,25.59
2018-07-23T05:04:37.579Z,25
2018-07-23T05:05:52.016Z,24.48
2018-07-23T05:07:05.932Z,24.31
2018-07-23T05:08:20.359Z,24.1
2018-07-23T05:09:34.911Z,23.94
2018-07-23T05:10:49.514Z,23.91
2018-07-23T05:12:03.463Z,23.76
2018-07-23T05:13:17.655Z,23.91
2018-07-23T05:14:32.389Z,23.59
2018-07-23T05:15:46.797Z,23.55
2018-07-23T05:17:01.523Z,23.76
2018-07-23T05:18:15.870Z,24.14
2018-07-23T05:21:43.560Z,25.31
2018-07-23T05:22:58.284Z,25.59
2018-07-23T05:24:12.003Z,25.58
2018-07-23T05:25:26.724Z,25.67
2018-07-23T05:26:40.916Z,25.77
2018-07-23T05:27:55.071Z,25.8
2018-07-23T05:29:09.944Z,25.76
2018-07-23T05:30:24.333Z,25.36
2018-07-23T05:31:39.102Z,25.03
2018-07-23T05:32:53.593Z,24.92
2018-07-23T05:34:08.049Z,24.81
2018-07-23T05:35:22.487Z,24.65
2018-07-23T05:36:36.668Z,24.5
2018-07-23T05:37:50.809Z,24.47
2018-07-23T05:39:05.030Z,24.29
2018-07-23T05:40:19.739Z,24.11
2018-07-23T05:41:34.020Z,24.03
2018-07-23T05:42:48.230Z,23.96
2018-07-23T05:44:02.919Z,23.94
2018-07-23T05:45:17.090Z,23.96
2018-07-23T05:46:31.681Z,23.89
2018-07-23T05:47:45.843Z,23.92
2018-07-23T05:49:00.534Z,23.91
2018-07-23T05:50:15.191Z,23.74
2018-07-23T05:51:29.202Z,23.59
2018-07-23T05:52:43.657Z,23.7
2018-07-23T05:53:58.096Z,23.82
2018-07-23T05:55:11.758Z,23.85
2018-07-23T05:56:26.355Z,23.85
2018-07-23T05:57:41.141Z,23.79
2018-07-23T05:58:55.804Z,23.74
2018-07-23T06:00:10.865Z,23.89
2018-07-23T06:01:25.045Z,23.82
2018-07-23T06:02:39.735Z,23.71
2018-07-23T06:03:54.402Z,23.85
2018-07-23T06:05:08.850Z,23.91
2018-07-23T06:06:22.625Z,23.77
2018-07-23T06:07:37.401Z,23.62
2018-07-23T06:08:52.329Z,23.63
2018-07-23T06:10:06.549Z,23.52
2018-07-23T06:11:20.752Z,23.4
2018-07-23T06:12:34.895Z,23.37
2018-07-23T06:13:49.970Z,23.23
2018-07-23T06:15:04.445Z,23.17
2018-07-23T06:16:19.359Z,23.25
2018-07-23T06:17:33.637Z,23.47
2018-07-23T06:18:48.078Z,23.49
2018-07-23T06:20:08.779Z,23.69
2018-07-23T06:21:22.727Z,23.76
2018-07-23T06:22:37.070Z,23.94
2018-07-23T06:23:51.769Z,24.07
2018-07-23T06:25:06.407Z,24.25
2018-07-23T06:26:20.576Z,24.37
2018-07-23T06:27:34.742Z,24.47
2018-07-23T06:28:48.923Z,24.71
2018-07-23T06:30:03.351Z,24.75
2018-07-23T06:31:18.372Z,24.88
2018-07-23T06:32:32.891Z,24.93
2018-07-23T06:33:47.864Z,25.01
2018-07-23T06:35:02.109Z,25.09
2018-07-23T06:36:16.802Z,25.14
2018-07-23T06:37:31.755Z,25.26
2018-07-23T06:38:46.177Z,25.25
2018-07-23T06:40:00.652Z,25.31
2018-07-23T06:41:15.620Z,25.24
2018-07-23T06:42:29.848Z,25.22
2018-07-23T06:43:44.632Z,25.25
2018-07-23T06:44:59.087Z,25.22
2018-07-23T06:46:13.549Z,25.33
2018-07-23T06:47:28.220Z,25.3
2018-07-23T06:48:42.642Z,25.19
2018-07-23T06:54:05.162Z,24.93
2018-07-23T06:55:20.052Z,24.94
2018-07-23T06:56:34.494Z,24.93
2018-07-23T06:57:48.697Z,24.94
2018-07-23T06:59:03.376Z,24.94
2018-07-23T07:00:17.598Z,24.96
2018-07-23T07:01:31.783Z,25
2018-07-23T07:02:46.219Z,24.94
2018-07-23T07:04:00.513Z,24.92
2018-07-23T07:05:15.022Z,24.69
2018-07-23T07:06:30.069Z,24.74
2018-07-23T07:07:45.015Z,24.69
2018-07-23T07:08:59.380Z,24.75
2018-07-23T07:10:13.820Z,24.79
2018-07-23T07:11:28.603Z,25
2018-07-23T07:12:43.585Z,24.94
2018-07-23T07:13:57.778Z,24.93
2018-07-23T07:15:12.248Z,25.07
2018-07-23T07:16:26.452Z,25.01
2018-07-23T07:17:41.137Z,25.07
2018-07-23T07:18:55.337Z,25.03
2018-07-23T07:20:09.783Z,24.93
2018-07-23T07:21:24.245Z,25.01
2018-07-23T07:22:38.196Z,24.97
2018-07-23T07:23:52.380Z,25.11
2018-07-23T07:25:07.234Z,25.15
2018-07-23T07:26:21.180Z,25.24
2018-07-23T07:27:35.616Z,25.4
2018-07-23T07:28:50.321Z,25.56
2018-07-23T07:30:05.450Z,25.56
2018-07-23T07:31:19.894Z,25.62
2018-07-23T07:32:35.046Z,25.56
2018-07-23T07:33:49.757Z,25.33
2018-07-23T07:35:04.370Z,25.36
2018-07-23T07:36:18.787Z,25.19
2018-07-23T07:37:33.251Z,25.14
2018-07-23T07:38:47.712Z,25.04
2018-07-23T07:40:02.205Z,25.14
2018-07-23T07:41:16.691Z,25.37
2018-07-23T07:42:30.070Z,25.49
2018-07-23T07:43:44.259Z,25.59
2018-07-23T07:44:58.963Z,25.54
2018-07-23T07:46:13.269Z,25.68
2018-07-23T07:47:27.998Z,25.71
2018-07-23T07:48:42.659Z,25.77
2018-07-23T07:49:57.537Z,25.92
2018-07-23T07:51:12.039Z,25.85
2018-07-23T07:52:25.745Z,25.85
2018-07-23T07:53:39.975Z,25.76
2018-07-23T07:54:54.145Z,25.81
2018-07-23T07:56:08.431Z,25.83
2018-07-23T07:57:23.155Z,25.78
2018-07-23T07:58:37.861Z,25.68
2018-07-23T07:59:51.789Z,25.7
2018-07-23T08:01:06.203Z,25.61
2018-07-23T08:02:21.131Z,25.63
2018-07-23T08:03:36.047Z,25.7
2018-07-23T08:04:50.226Z,25.68
2018-07-23T08:06:05.071Z,25.77
2018-07-23T08:07:19.010Z,25.81
2018-07-23T08:08:33.486Z,25.86
2018-07-23T08:09:47.957Z,26.04
2018-07-23T08:11:02.455Z,26.11
2018-07-23T08:12:17.164Z,26.24
2018-07-23T08:13:31.847Z,26.41
2018-07-23T08:14:46.551Z,26.48
2018-07-23T08:16:01.063Z,26.34
2018-07-23T08:17:15.808Z,26.46
2018-07-23T08:18:29.995Z,26.52
2018-07-23T08:19:44.144Z,26.56
2018-07-23T08:20:59.019Z,26.71
2018-07-23T08:22:13.729Z,26.64
2018-07-23T08:23:27.669Z,26.66
2018-07-23T08:24:42.665Z,26.79
2018-07-23T08:25:56.876Z,26.83
2018-07-23T08:27:11.614Z,26.76
2018-07-23T08:28:26.078Z,26.81
2018-07-23T08:29:40.868Z,26.96
2018-07-23T08:30:55.597Z,27.1
2018-07-23T08:32:10.874Z,27.22
2018-07-23T08:33:25.725Z,27.2
2018-07-23T08:34:39.668Z,27.33
2018-07-23T08:35:54.151Z,27.41
2018-07-23T08:37:09.474Z,27.5
2018-07-23T08:38:24.067Z,27.43
2018-07-23T08:39:38.452Z,27.47
2018-07-23T08:40:52.762Z,27.41
2018-07-23T08:42:07.321Z,27.47
2018-07-23T08:43:21.827Z,27.47
2018-07-23T08:44:35.761Z,27.47
2018-07-23T08:45:50.704Z,27.28
2018-07-23T08:47:05.707Z,27.19
2018-07-23T08:48:20.157Z,27.2
2018-07-23T08:49:34.882Z,27.19
2018-07-23T08:50:49.796Z,27.29
2018-07-23T08:52:04.232Z,27.37
2018-07-23T08:53:18.405Z,27.22
2018-07-23T08:54:32.836Z,27.22
2018-07-23T08:55:47.509Z,27.34
2018-07-23T08:57:02.224Z,27.44
2018-07-23T08:58:16.718Z,27.5
2018-07-23T08:59:30.917Z,27.45
2018-07-23T09:00:45.992Z,27.45
2018-07-23T09:02:00.921Z,27.63
2018-07-23T09:03:15.404Z,27.47
2018-07-23T09:04:29.589Z,27.43
2018-07-23T09:05:44.041Z,27.45
2018-07-23T09:06:58.745Z,27.61
2018-07-23T09:08:12.722Z,27.68
2018-07-23T09:09:27.285Z,27.81
2018-07-23T09:10:42.182Z,27.75
2018-07-23T09:11:56.397Z,27.76
2018-07-23T09:13:10.871Z,27.86
2018-07-23T09:14:25.402Z,27.97
2018-07-23T09:15:40.074Z,28.01
2018-07-23T09:16:54.504Z,28.09
2018-07-23T09:18:09.044Z,28
2018-07-23T09:19:23.762Z,27.94
2018-07-23T09:20:38.267Z,27.9
2018-07-23T09:21:52.478Z,27.71
2018-07-23T09:23:06.757Z,27.85
2018-07-23T09:24:21.217Z,27.72
2018-07-23T09:25:35.412Z,27.79
2018-07-23T09:26:49.867Z,27.97
2018-07-23T09:28:04.344Z,28.03
2018-07-23T09:29:18.577Z,28.1
2018-07-23T09:30:33.528Z,27.86
2018-07-23T09:31:47.973Z,27.97
2018-07-23T09:33:02.207Z,27.93
2018-07-23T09:34:16.991Z,27.98
2018-07-23T09:35:31.409Z,28.04
2018-07-23T09:36:45.102Z,28.15
2018-07-23T09:37:59.576Z,28.15
2018-07-23T09:39:14.088Z,28.31
2018-07-23T09:40:28.061Z,28.3
2018-07-23T09:41:42.741Z,28.12
2018-07-23T09:42:56.381Z,28.13
2018-07-23T09:44:11.203Z,28.16
2018-07-23T09:45:25.945Z,28.06
2018-07-23T09:46:40.511Z,28
2018-07-23T09:47:54.477Z,28.09
2018-07-23T09:49:09.233Z,28.08
2018-07-23T09:50:23.924Z,28.18
2018-07-23T09:51:38.383Z,28.23
2018-07-23T09:52:52.073Z,28.28
2018-07-23T09:54:06.637Z,28.28
2018-07-23T09:55:21.085Z,28.3
2018-07-23T09:56:35.052Z,28.33
2018-07-23T09:57:48.992Z,28.4
2018-07-23T09:59:03.435Z,28.38
2018-07-23T10:00:17.782Z,28.35
2018-07-23T10:01:32.009Z,28.35
2018-07-23T10:02:46.955Z,28.6
2018-07-23T10:04:02.006Z,28.68
2018-07-23T10:05:16.876Z,28.77
2018-07-23T10:06:31.351Z,28.89
2018-07-23T10:07:45.333Z,28.78
2018-07-23T10:08:59.783Z,28.68
2018-07-23T10:10:14.292Z,28.68
2018-07-23T10:11:28.719Z,28.75
2018-07-23T10:12:43.155Z,28.78
2018-07-23T10:13:57.371Z,28.83
2018-07-23T10:15:11.699Z,28.86
2018-07-23T10:16:26.205Z,28.83
2018-07-23T10:17:40.663Z,28.7
2018-07-23T10:18:54.916Z,28.64
2018-07-23T10:20:09.699Z,28.77
2018-07-23T10:21:23.935Z,28.8
2018-07-23T10:22:38.178Z,28.92
2018-07-23T10:23:52.799Z,29
2018-07-23T10:25:07.325Z,29.05
2018-07-23T10:26:22.286Z,29.09
2018-07-23T10:27:37.152Z,29.05
2018-07-23T10:28:52.225Z,29.18
2018-07-23T10:30:06.990Z,29.09
2018-07-23T10:31:21.594Z,29.1
2018-07-23T10:32:36.005Z,29.1
2018-07-23T10:33:50.708Z,29.35
2018-07-23T10:35:04.962Z,29.32
2018-07-23T10:36:19.421Z,29.46
2018-07-23T10:37:34.113Z,29.69
2018-07-23T10:38:48.549Z,29.59
2018-07-23T10:40:02.710Z,29.71
2018-07-23T10:41:17.733Z,29.52
2018-07-23T10:42:32.183Z,29.73
2018-07-23T10:43:46.391Z,29.73
2018-07-23T10:45:00.366Z,29.81
2018-07-23T10:46:15.156Z,29.9
2018-07-23T10:47:29.326Z,29.8
2018-07-23T10:48:44.012Z,29.99
2018-07-23T10:49:57.744Z,29.8
2018-07-23T10:51:11.821Z,29.86
2018-07-23T10:52:26.323Z,29.86
2018-07-23T10:53:40.029Z,29.67
2018-07-23T10:54:54.794Z,29.77
2018-07-23T10:56:09.490Z,29.74
2018-07-23T10:57:24.051Z,29.87
2018-07-23T10:58:38.545Z,29.9
2018-07-23T10:59:53.015Z,30.08
2018-07-23T11:01:07.224Z,30.06
2018-07-23T11:02:22.387Z,30.16
2018-07-23T11:03:36.599Z,30.29
2018-07-23T11:04:50.554Z,30.61
2018-07-23T11:06:05.015Z,30.58
2018-07-23T11:07:19.218Z,30.51
2018-07-23T11:08:33.433Z,30.59
2018-07-23T11:09:47.367Z,30.51
2018-07-23T11:11:01.345Z,30.55
2018-07-23T11:12:16.080Z,30.54
2018-07-23T11:13:30.780Z,30.51
2018-07-23T11:14:45.254Z,30.55
2018-07-23T11:15:59.205Z,30.69
2018-07-23T11:17:13.926Z,30.65
2018-07-23T11:18:28.604Z,30.36
2018-07-23T11:19:43.313Z,30.49
2018-07-23T11:20:57.766Z,30.59
2018-07-23T11:22:12.711Z,30.93
2018-07-23T11:23:26.936Z,30.91
2018-07-23T11:24:45.445Z,30.93
2018-07-23T11:25:54.992Z,30.95
2018-07-23T11:27:09.000Z,31
2018-07-23T11:28:23.302Z,31.13
2018-07-23T11:29:37.970Z,31.26
2018-07-23T11:30:52.304Z,31.2
2018-07-23T11:32:06.695Z,31.29
2018-07-23T11:33:21.457Z,31.33
2018-07-23T11:34:48.656Z,31.28
2018-07-23T11:36:03.132Z,31.29
2018-07-23T11:37:17.780Z,31.37
2018-07-23T11:38:32.465Z,31.26
2018-07-23T11:39:46.902Z,31.22
2018-07-23T11:41:01.397Z,31.23
2018-07-23T11:42:15.713Z,31.02
2018-07-23T11:43:29.914Z,30.96
2018-07-23T11:44:44.351Z,30.88
2018-07-23T11:45:58.828Z,30.96
2018-07-23T11:47:13.903Z,30.88
2018-07-23T11:48:28.177Z,30.76
2018-07-23T11:49:42.367Z,30.56
2018-07-23T11:50:57.163Z,30.51
2018-07-23T11:52:14.353Z,30.48
2018-07-23T11:53:30.351Z,30.48
2018-07-23T11:54:44.878Z,30.56
2018-07-23T11:55:59.340Z,30.63
2018-07-23T11:57:13.421Z,30.58
2018-07-23T11:58:28.370Z,30.52
2018-07-23T11:59:42.314Z,30.54
2018-07-23T12:00:57.271Z,30.56
2018-07-23T12:02:12.020Z,30.7
2018-07-23T12:03:27.211Z,30.88
2018-07-23T12:04:41.858Z,30.98
2018-07-23T12:05:56.054Z,30.95
2018-07-23T12:07:10.235Z,31.02
2018-07-23T12:08:24.564Z,30.99
2018-07-23T12:09:39.666Z,30.63
2018-07-23T12:10:54.363Z,30.67
2018-07-23T12:12:08.850Z,30.61
2018-07-23T12:13:23.718Z,30.71
2018-07-23T12:14:38.176Z,30.78
2018-07-23T12:15:52.348Z,30.98
2018-07-23T12:17:07.136Z,30.98
2018-07-23T12:18:21.727Z,31
2018-07-23T12:19:36.193Z,30.99
2018-07-23T12:20:50.674Z,30.99
2018-07-23T12:22:05.390Z,30.92
2018-07-23T12:23:19.341Z,30.39
2018-07-23T12:24:34.033Z,30.33
2018-07-23T12:25:47.799Z,30.44
2018-07-23T12:27:01.761Z,30.49
2018-07-23T12:28:16.476Z,30.61
2018-07-23T12:29:31.072Z,30.71
2018-07-23T12:30:45.784Z,30.7
2018-07-23T12:32:00.506Z,30.71
2018-07-23T12:33:14.978Z,30.65
2018-07-23T12:34:29.323Z,30.76
2018-07-23T12:35:43.829Z,30.55
2018-07-23T12:36:58.574Z,30.61
2018-07-23T12:38:13.288Z,30.65
2018-07-23T12:39:28.536Z,30.88
2018-07-23T12:40:43.549Z,30.83
2018-07-23T12:41:58.271Z,30.89
2018-07-23T12:43:13.029Z,30.58
2018-07-23T12:44:27.551Z,30.59
2018-07-23T12:45:41.769Z,30.71
2018-07-23T12:46:56.233Z,30.74
2018-07-23T12:48:10.242Z,30.74
2018-07-23T12:49:24.977Z,30.54
2018-07-23T12:50:39.167Z,30.51
2018-07-23T12:51:53.884Z,30.44
2018-07-23T12:53:08.606Z,30.43
2018-07-23T12:54:23.049Z,30.29
2018-07-23T12:55:37.481Z,30.21
2018-07-23T12:56:52.433Z,30.26
2018-07-23T12:58:07.190Z,30.46
2018-07-23T12:59:22.359Z,30.32
2018-07-23T13:00:37.073Z,30.26
2018-07-23T13:01:51.780Z,30.35
2018-07-23T13:03:06.700Z,30.36
2018-07-23T13:04:20.676Z,30.27
2018-07-23T13:05:35.661Z,30.18
2018-07-23T13:06:50.383Z,30.06
2018-07-23T13:08:05.244Z,30.18
2018-07-23T13:09:19.738Z,30.35
2018-07-23T13:10:33.561Z,30.27
2018-07-23T13:11:47.736Z,30.17
2018-07-23T13:13:01.919Z,30.05
2018-07-23T13:14:15.863Z,29.9
2018-07-23T13:15:30.123Z,29.98
2018-07-23T13:16:45.176Z,30.11
2018-07-23T13:17:59.705Z,30.2
2018-07-23T13:19:14.495Z,30.31
2018-07-23T13:20:29.502Z,30.4
2018-07-23T13:21:43.719Z,30.49
2018-07-23T13:22:57.893Z,30.74
2018-07-23T13:24:12.588Z,30.61
2018-07-23T13:25:27.168Z,30.73
2018-07-23T13:26:42.108Z,30.83
2018-07-23T13:27:56.797Z,30.98
2018-07-23T13:29:11.262Z,30.96
2018-07-23T13:30:25.836Z,31.02
2018-07-23T13:31:40.329Z,31.17
2018-07-23T13:32:54.537Z,31.02
2018-07-23T13:34:09.015Z,31.08
2018-07-23T13:35:23.790Z,31.22
2018-07-23T13:36:38.504Z,31.11
2018-07-23T13:37:53.057Z,31.11
2018-07-23T13:39:07.994Z,30.91
2018-07-23T13:40:22.728Z,30.95
2018-07-23T13:41:37.254Z,31.02
2018-07-23T13:42:51.987Z,31.08
2018-07-23T13:44:06.719Z,31.13
2018-07-23T13:45:21.427Z,31.14
2018-07-23T13:46:35.883Z,31.11
2018-07-23T13:47:50.421Z,31.1
2018-07-23T13:49:05.374Z,31.1
2018-07-23T13:50:20.093Z,30.92
2018-07-23T13:51:34.952Z,30.92
2018-07-23T13:52:48.662Z,30.76
2018-07-23T13:54:03.390Z,30.77
2018-07-23T13:55:18.348Z,30.81
2018-07-23T13:56:33.388Z,30.8
2018-07-23T13:57:47.332Z,30.8
2018-07-23T13:59:02.030Z,30.76
2018-07-23T14:00:16.787Z,30.7
2018-07-23T14:01:31.890Z,30.71
2018-07-23T14:02:46.603Z,30.77
2018-07-23T14:04:01.099Z,30.76
2018-07-23T14:05:15.585Z,30.89
2018-07-23T14:06:30.599Z,31
2018-07-23T14:07:44.939Z,30.85
2018-07-23T14:08:59.382Z,30.69
2018-07-23T14:10:13.630Z,30.71
2018-07-23T14:11:28.508Z,30.61
2018-07-23T14:12:43.221Z,30.67
2018-07-23T14:13:58.004Z,30.43
2018-07-23T14:15:12.740Z,30.46
2018-07-23T14:16:27.512Z,30.38
2018-07-23T14:17:42.694Z,30.36
2018-07-23T14:18:57.166Z,30.16
2018-07-23T14:20:11.373Z,30.29
2018-07-23T14:21:26.079Z,30.32
2018-07-23T14:22:40.313Z,30.32
2018-07-23T14:23:54.768Z,30.4
2018-07-23T14:25:09.035Z,30.44
2018-07-23T14:26:23.759Z,30.35
2018-07-23T14:27:38.380Z,30.23
2018-07-23T14:28:53.201Z,30.2
2018-07-23T14:30:08.030Z,30.24
2018-07-23T14:31:22.667Z,30.23
2018-07-23T14:32:37.378Z,30.2
2018-07-23T14:33:51.389Z,30.08
2018-07-23T14:35:06.438Z,30.05
2018-07-23T14:36:20.953Z,30.21
2018-07-23T14:37:35.202Z,30.2
2018-07-23T14:38:49.175Z,30.29
2018-07-23T14:40:03.651Z,30.4
2018-07-23T14:41:18.478Z,30.55
2018-07-23T14:42:32.948Z,30.69
2018-07-23T14:43:46.742Z,30.69
2018-07-23T14:45:01.082Z,30.65
2018-07-23T14:46:15.318Z,30.76
2018-07-23T14:47:29.066Z,30.8
2018-07-23T14:48:43.647Z,30.92
2018-07-23T14:49:58.441Z,30.88
2018-07-23T14:51:12.429Z,31.11
2018-07-23T14:52:27.449Z,31.23
2018-07-23T14:53:42.372Z,31.18
2018-07-23T14:54:56.568Z,31.15
2018-07-23T14:56:11.024Z,31.11
2018-07-23T14:57:24.992Z,31.1
2018-07-23T14:58:39.735Z,31.23
2018-07-23T14:59:54.467Z,31.18
2018-07-23T15:01:08.874Z,31.32
2018-07-23T15:02:23.340Z,31.35
2018-07-23T15:03:38.525Z,31.33
2018-07-23T15:04:53.546Z,31.47
2018-07-23T15:06:08.074Z,31.55
2018-07-23T15:07:23.101Z,31.51
2018-07-23T15:08:37.997Z,31.55
2018-07-23T15:09:52.263Z,31.51
2018-07-23T15:11:06.793Z,31.45
2018-07-23T15:12:21.780Z,31.47
2018-07-23T15:13:36.367Z,31.35
2018-07-23T15:14:50.895Z,31.32
2018-07-23T15:16:05.179Z,31.47
2018-07-23T15:17:19.800Z,31.57
2018-07-23T15:18:34.559Z,31.7
2018-07-23T15:19:49.084Z,31.54
2018-07-23T15:21:04.061Z,31.63
2018-07-23T15:22:18.317Z,31.69
2018-07-23T15:23:32.868Z,31.59
2018-07-23T15:24:47.759Z,31.72
2018-07-23T15:26:02.283Z,31.69
2018-07-23T15:27:16.895Z,31.72
2018-07-23T15:28:31.129Z,31.69
2018-07-23T15:29:45.790Z,31.78
2018-07-23T15:31:00.515Z,31.9
2018-07-23T15:32:14.735Z,31.92
2018-07-23T15:33:28.705Z,31.87
2018-07-23T15:34:43.276Z,31.74
2018-07-23T15:35:58.289Z,31.77
2018-07-23T15:37:13.356Z,31.79
2018-07-23T15:38:27.664Z,31.67
2018-07-23T15:39:42.332Z,31.81
2018-07-23T15:40:57.283Z,31.82
2018-07-23T15:42:12.029Z,31.87
2018-07-23T15:43:26.769Z,31.59
2018-07-23T15:44:42.623Z,31.63
2018-07-23T15:45:58.619Z,31.59
2018-07-23T15:47:13.826Z,31.63
2018-07-23T15:48:28.589Z,31.69
2018-07-23T15:49:42.595Z,31.64
2018-07-23T15:50:57.325Z,31.57
2018-07-23T15:52:11.858Z,31.62
2018-07-23T15:53:26.326Z,31.63
2018-07-23T15:54:40.831Z,31.55
2018-07-23T15:55:56.005Z,31.45
2018-07-23T15:57:10.745Z,31.54
2018-07-23T15:58:25.738Z,31.6
2018-07-23T15:59:40.541Z,31.57
2018-07-23T16:00:54.694Z,31.72
2018-07-23T16:02:08.911Z,31.66
2018-07-23T16:03:23.669Z,31.74
2018-07-23T16:04:38.429Z,31.57
2018-07-23T16:05:54.417Z,31.73
2018-07-23T16:07:08.178Z,31.64
2018-07-23T16:08:22.442Z,31.64
2018-07-23T16:09:36.938Z,31.66
2018-07-23T16:10:52.244Z,31.74
2018-07-23T16:12:07.174Z,31.7